sensor_id;sensor_type;location;lat;lon;timestamp;temperature;humidity
4354;DHT22;11018;51.258;6.806;2024-03-17T00:02:20;6.00;67.50
4354;DHT22;11018;51.258;6.806;2024-03-17T00:04:46;6.00;66.80
4354;DHT22;11018;51.258;6.806;2024-03-17T00:07:12;6.00;66.70
4354;DHT22;11018;51.258;6.806;2024-03-17T00:09:38;6.10;66.80
4354;DHT22;11018;51.258;6.806;2024-03-17T00:12:04;6.00;66.60
4354;DHT22;11018;51.258;6.806;2024-03-17T00:14:30;6.00;67.10
4354;DHT22;11018;51.258;6.806;2024-03-17T00:16:55;6.00;66.70
4354;DHT22;11018;51.258;6.806;2024-03-17T00:19:21;6.00;67.00
4354;DHT22;11018;51.258;6.806;2024-03-17T00:21:48;6.00;67.00
4354;DHT22;11018;51.258;6.806;2024-03-17T00:24:16;5.90;67.50
4354;DHT22;11018;51.258;6.806;2024-03-17T00:26:42;5.90;67.80
4354;DHT22;11018;51.258;6.806;2024-03-17T00:29:07;5.90;68.00
4354;DHT22;11018;51.258;6.806;2024-03-17T00:31:33;5.90;68.20
4354;DHT22;11018;51.258;6.806;2024-03-17T00:33:59;5.90;68.60
4354;DHT22;11018;51.258;6.806;2024-03-17T00:36:24;5.90;68.80
4354;DHT22;11018;51.258;6.806;2024-03-17T00:38:50;5.90;68.70
4354;DHT22;11018;51.258;6.806;2024-03-17T00:41:17;6.00;68.70
4354;DHT22;11018;51.258;6.806;2024-03-17T00:43:43;6.00;68.40
4354;DHT22;11018;51.258;6.806;2024-03-17T00:46:08;6.10;68.00
4354;DHT22;11018;51.258;6.806;2024-03-17T00:48:34;6.10;67.80
4354;DHT22;11018;51.258;6.806;2024-03-17T00:50:59;6.20;67.20
4354;DHT22;11018;51.258;6.806;2024-03-17T00:53:25;6.20;66.60
4354;DHT22;11018;51.258;6.806;2024-03-17T00:55:54;6.20;66.30
4354;DHT22;11018;51.258;6.806;2024-03-17T00:58:23;6.20;66.10
4354;DHT22;11018;51.258;6.806;2024-03-17T01:00:49;6.20;65.90
4354;DHT22;11018;51.258;6.806;2024-03-17T01:03:15;6.20;65.40
4354;DHT22;11018;51.258;6.806;2024-03-17T01:05:41;6.20;65.30
4354;DHT22;11018;51.258;6.806;2024-03-17T01:08:09;6.20;65.70
4354;DHT22;11018;51.258;6.806;2024-03-17T01:10:40;6.20;66.20
4354;DHT22;11018;51.258;6.806;2024-03-17T01:13:07;6.10;66.40
4354;DHT22;11018;51.258;6.806;2024-03-17T01:15:34;6.20;66.00
4354;DHT22;11018;51.258;6.806;2024-03-17T01:17:59;6.20;65.70
4354;DHT22;11018;51.258;6.806;2024-03-17T01:20:25;6.10;65.90
4354;DHT22;11018;51.258;6.806;2024-03-17T01:22:51;6.10;66.50
4354;DHT22;11018;51.258;6.806;2024-03-17T01:25:16;6.10;66.30
4354;DHT22;11018;51.258;6.806;2024-03-17T01:27:42;6.10;66.90
4354;DHT22;11018;51.258;6.806;2024-03-17T01:30:09;6.10;67.40
4354;DHT22;11018;51.258;6.806;2024-03-17T01:32:35;6.10;67.10
4354;DHT22;11018;51.258;6.806;2024-03-17T01:35:00;6.20;66.80
4354;DHT22;11018;51.258;6.806;2024-03-17T01:37:26;6.10;67.70
4354;DHT22;11018;51.258;6.806;2024-03-17T01:39:52;6.10;68.50
4354;DHT22;11018;51.258;6.806;2024-03-17T01:42:17;6.10;68.40
4354;DHT22;11018;51.258;6.806;2024-03-17T01:44:43;6.10;68.20
4354;DHT22;11018;51.258;6.806;2024-03-17T01:47:09;6.10;68.20
4354;DHT22;11018;51.258;6.806;2024-03-17T01:49:35;6.10;68.20
4354;DHT22;11018;51.258;6.806;2024-03-17T01:52:01;6.00;69.00
4354;DHT22;11018;51.258;6.806;2024-03-17T01:54:29;6.00;69.20
4354;DHT22;11018;51.258;6.806;2024-03-17T01:56:54;6.00;69.50
4354;DHT22;11018;51.258;6.806;2024-03-17T01:59:20;6.00;69.20
4354;DHT22;11018;51.258;6.806;2024-03-17T02:01:46;5.90;69.50
4354;DHT22;11018;51.258;6.806;2024-03-17T02:04:11;5.90;70.20
4354;DHT22;11018;51.258;6.806;2024-03-17T02:06:37;5.80;70.30
4354;DHT22;11018;51.258;6.806;2024-03-17T02:09:02;5.80;69.40
4354;DHT22;11018;51.258;6.806;2024-03-17T02:11:33;5.80;69.80
4354;DHT22;11018;51.258;6.806;2024-03-17T02:13:59;5.80;70.50
4354;DHT22;11018;51.258;6.806;2024-03-17T02:16:26;5.70;71.70
4354;DHT22;11018;51.258;6.806;2024-03-17T02:18:58;5.80;72.00
4354;DHT22;11018;51.258;6.806;2024-03-17T02:21:24;5.80;71.60
4354;DHT22;11018;51.258;6.806;2024-03-17T02:23:54;5.70;72.40
4354;DHT22;11018;51.258;6.806;2024-03-17T02:26:20;5.70;73.70
4354;DHT22;11018;51.258;6.806;2024-03-17T02:28:47;5.70;75.20
4354;DHT22;11018;51.258;6.806;2024-03-17T02:31:14;5.60;75.10
4354;DHT22;11018;51.258;6.806;2024-03-17T02:33:41;5.60;76.60
4354;DHT22;11018;51.258;6.806;2024-03-17T02:36:06;5.60;76.80
4354;DHT22;11018;51.258;6.806;2024-03-17T02:38:33;5.60;77.00
4354;DHT22;11018;51.258;6.806;2024-03-17T02:41:18;5.60;77.70
4354;DHT22;11018;51.258;6.806;2024-03-17T02:43:44;5.60;77.90
4354;DHT22;11018;51.258;6.806;2024-03-17T02:46:15;5.60;78.40
4354;DHT22;11018;51.258;6.806;2024-03-17T02:48:41;5.50;78.90
4354;DHT22;11018;51.258;6.806;2024-03-17T02:51:13;5.50;79.90
4354;DHT22;11018;51.258;6.806;2024-03-17T02:53:41;5.50;80.90
4354;DHT22;11018;51.258;6.806;2024-03-17T02:56:06;5.50;81.20
4354;DHT22;11018;51.258;6.806;2024-03-17T02:58:36;5.50;80.80
4354;DHT22;11018;51.258;6.806;2024-03-17T03:01:06;5.50;83.30
4354;DHT22;11018;51.258;6.806;2024-03-17T03:03:34;5.50;81.40
4354;DHT22;11018;51.258;6.806;2024-03-17T03:06:00;5.50;82.80
4354;DHT22;11018;51.258;6.806;2024-03-17T03:08:32;5.50;82.20
4354;DHT22;11018;51.258;6.806;2024-03-17T03:10:57;5.50;82.00
4354;DHT22;11018;51.258;6.806;2024-03-17T03:13:23;5.50;83.30
4354;DHT22;11018;51.258;6.806;2024-03-17T03:15:48;5.40;83.30
4354;DHT22;11018;51.258;6.806;2024-03-17T03:18:15;5.50;83.50
4354;DHT22;11018;51.258;6.806;2024-03-17T03:20:41;5.50;82.90
4354;DHT22;11018;51.258;6.806;2024-03-17T03:23:06;5.50;82.90
4354;DHT22;11018;51.258;6.806;2024-03-17T03:25:32;5.40;83.90
4354;DHT22;11018;51.258;6.806;2024-03-17T03:27:58;5.40;84.30
4354;DHT22;11018;51.258;6.806;2024-03-17T03:30:24;5.40;85.10
4354;DHT22;11018;51.258;6.806;2024-03-17T03:32:50;5.40;86.20
4354;DHT22;11018;51.258;6.806;2024-03-17T03:35:16;5.40;85.60
4354;DHT22;11018;51.258;6.806;2024-03-17T03:37:41;5.40;85.90
4354;DHT22;11018;51.258;6.806;2024-03-17T03:40:08;5.40;85.70
4354;DHT22;11018;51.258;6.806;2024-03-17T03:42:45;5.40;87.00
4354;DHT22;11018;51.258;6.806;2024-03-17T03:45:11;5.30;87.20
4354;DHT22;11018;51.258;6.806;2024-03-17T03:47:42;5.30;88.00
4354;DHT22;11018;51.258;6.806;2024-03-17T03:50:11;5.30;89.30
4354;DHT22;11018;51.258;6.806;2024-03-17T03:52:37;5.30;90.50
4354;DHT22;11018;51.258;6.806;2024-03-17T03:55:04;5.30;91.10
4354;DHT22;11018;51.258;6.806;2024-03-17T03:57:30;5.30;89.60
4354;DHT22;11018;51.258;6.806;2024-03-17T03:59:57;5.40;91.10
4354;DHT22;11018;51.258;6.806;2024-03-17T04:02:23;5.40;90.70
4354;DHT22;11018;51.258;6.806;2024-03-17T04:04:50;5.40;89.10
4354;DHT22;11018;51.258;6.806;2024-03-17T04:07:16;5.40;89.20
4354;DHT22;11018;51.258;6.806;2024-03-17T04:09:42;5.40;88.40
4354;DHT22;11018;51.258;6.806;2024-03-17T04:12:07;5.40;87.70
4354;DHT22;11018;51.258;6.806;2024-03-17T04:14:33;5.40;88.90
4354;DHT22;11018;51.258;6.806;2024-03-17T04:16:59;5.40;88.70
4354;DHT22;11018;51.258;6.806;2024-03-17T04:19:24;5.40;89.50
4354;DHT22;11018;51.258;6.806;2024-03-17T04:21:51;5.50;87.30
4354;DHT22;11018;51.258;6.806;2024-03-17T04:24:17;5.50;86.10
4354;DHT22;11018;51.258;6.806;2024-03-17T04:26:42;5.60;84.60
4354;DHT22;11018;51.258;6.806;2024-03-17T04:29:08;5.60;85.80
4354;DHT22;11018;51.258;6.806;2024-03-17T04:31:34;5.60;84.20
4354;DHT22;11018;51.258;6.806;2024-03-17T04:33:59;5.60;84.50
4354;DHT22;11018;51.258;6.806;2024-03-17T04:36:25;5.60;84.90
4354;DHT22;11018;51.258;6.806;2024-03-17T04:38:51;5.70;86.80
4354;DHT22;11018;51.258;6.806;2024-03-17T04:41:17;5.80;84.50
4354;DHT22;11018;51.258;6.806;2024-03-17T04:43:44;5.90;81.80
4354;DHT22;11018;51.258;6.806;2024-03-17T04:46:09;5.90;82.30
4354;DHT22;11018;51.258;6.806;2024-03-17T04:48:37;6.00;80.80
4354;DHT22;11018;51.258;6.806;2024-03-17T04:51:03;6.10;81.50
4354;DHT22;11018;51.258;6.806;2024-03-17T04:53:29;6.10;79.50
4354;DHT22;11018;51.258;6.806;2024-03-17T04:56:02;6.20;77.40
4354;DHT22;11018;51.258;6.806;2024-03-17T04:58:33;6.20;77.70
4354;DHT22;11018;51.258;6.806;2024-03-17T05:01:09;6.30;75.30
4354;DHT22;11018;51.258;6.806;2024-03-17T05:03:35;6.40;75.30
4354;DHT22;11018;51.258;6.806;2024-03-17T05:06:04;6.40;74.20
4354;DHT22;11018;51.258;6.806;2024-03-17T05:08:31;6.40;74.50
4354;DHT22;11018;51.258;6.806;2024-03-17T05:11:02;6.40;70.40
4354;DHT22;11018;51.258;6.806;2024-03-17T05:13:34;6.50;69.30
4354;DHT22;11018;51.258;6.806;2024-03-17T05:16:01;6.50;69.60
4354;DHT22;11018;51.258;6.806;2024-03-17T05:18:27;6.60;66.80
4354;DHT22;11018;51.258;6.806;2024-03-17T05:20:59;6.50;67.70
4354;DHT22;11018;51.258;6.806;2024-03-17T05:23:30;6.50;68.30
4354;DHT22;11018;51.258;6.806;2024-03-17T05:25:56;6.50;67.60
4354;DHT22;11018;51.258;6.806;2024-03-17T05:28:28;6.40;67.80
4354;DHT22;11018;51.258;6.806;2024-03-17T05:30:54;6.30;70.20
4354;DHT22;11018;51.258;6.806;2024-03-17T05:33:20;6.30;68.90
4354;DHT22;11018;51.258;6.806;2024-03-17T05:35:53;6.20;70.40
4354;DHT22;11018;51.258;6.806;2024-03-17T05:38:29;6.20;69.60
4354;DHT22;11018;51.258;6.806;2024-03-17T05:40:58;6.10;70.20
4354;DHT22;11018;51.258;6.806;2024-03-17T05:43:28;6.10;70.60
4354;DHT22;11018;51.258;6.806;2024-03-17T05:45:56;6.10;69.00
4354;DHT22;11018;51.258;6.806;2024-03-17T05:48:22;6.00;69.30
4354;DHT22;11018;51.258;6.806;2024-03-17T05:50:49;6.00;70.00
4354;DHT22;11018;51.258;6.806;2024-03-17T05:53:16;6.00;71.80
4354;DHT22;11018;51.258;6.806;2024-03-17T05:55:43;6.10;72.00
4354;DHT22;11018;51.258;6.806;2024-03-17T05:58:09;6.20;71.70
4354;DHT22;11018;51.258;6.806;2024-03-17T06:00:36;6.30;69.30
4354;DHT22;11018;51.258;6.806;2024-03-17T06:03:02;6.30;68.40
4354;DHT22;11018;51.258;6.806;2024-03-17T06:05:34;6.50;65.70
4354;DHT22;11018;51.258;6.806;2024-03-17T06:08:01;6.50;65.10
4354;DHT22;11018;51.258;6.806;2024-03-17T06:10:28;6.60;64.60
4354;DHT22;11018;51.258;6.806;2024-03-17T06:12:54;6.60;64.00
4354;DHT22;11018;51.258;6.806;2024-03-17T06:15:19;6.60;61.40
4354;DHT22;11018;51.258;6.806;2024-03-17T06:17:46;6.60;62.70
4354;DHT22;11018;51.258;6.806;2024-03-17T06:20:12;6.60;60.40
4354;DHT22;11018;51.258;6.806;2024-03-17T06:22:39;6.70;59.80
4354;DHT22;11018;51.258;6.806;2024-03-17T06:25:08;6.70;59.60
4354;DHT22;11018;51.258;6.806;2024-03-17T06:27:33;6.70;58.70
4354;DHT22;11018;51.258;6.806;2024-03-17T06:30:00;6.90;57.20
4354;DHT22;11018;51.258;6.806;2024-03-17T06:32:32;7.00;57.40
4354;DHT22;11018;51.258;6.806;2024-03-17T06:34:58;7.10;55.90
4354;DHT22;11018;51.258;6.806;2024-03-17T06:37:25;7.20;55.50
4354;DHT22;11018;51.258;6.806;2024-03-17T06:39:51;7.30;56.20
4354;DHT22;11018;51.258;6.806;2024-03-17T06:42:16;7.40;55.30
4354;DHT22;11018;51.258;6.806;2024-03-17T06:44:42;7.60;53.80
4354;DHT22;11018;51.258;6.806;2024-03-17T06:47:08;7.80;52.10
4354;DHT22;11018;51.258;6.806;2024-03-17T06:49:33;7.90;50.10
4354;DHT22;11018;51.258;6.806;2024-03-17T06:51:59;8.10;50.00
4354;DHT22;11018;51.258;6.806;2024-03-17T06:54:24;8.30;49.00
4354;DHT22;11018;51.258;6.806;2024-03-17T06:56:50;8.40;48.40
4354;DHT22;11018;51.258;6.806;2024-03-17T06:59:17;8.60;46.90
4354;DHT22;11018;51.258;6.806;2024-03-17T07:01:43;8.70;46.10
4354;DHT22;11018;51.258;6.806;2024-03-17T07:04:10;8.70;45.60
4354;DHT22;11018;51.258;6.806;2024-03-17T07:06:36;8.70;45.40
4354;DHT22;11018;51.258;6.806;2024-03-17T07:09:02;8.60;45.20
4354;DHT22;11018;51.258;6.806;2024-03-17T07:11:27;8.50;45.20
4354;DHT22;11018;51.258;6.806;2024-03-17T07:13:53;8.40;46.00
4354;DHT22;11018;51.258;6.806;2024-03-17T07:16:19;8.40;46.30
4354;DHT22;11018;51.258;6.806;2024-03-17T07:18:46;8.20;46.80
4354;DHT22;11018;51.258;6.806;2024-03-17T07:21:12;8.20;46.60
4354;DHT22;11018;51.258;6.806;2024-03-17T07:23:37;8.10;47.50
4354;DHT22;11018;51.258;6.806;2024-03-17T07:26:04;8.00;46.90
4354;DHT22;11018;51.258;6.806;2024-03-17T07:28:34;8.00;47.20
4354;DHT22;11018;51.258;6.806;2024-03-17T07:31:00;8.00;45.90
4354;DHT22;11018;51.258;6.806;2024-03-17T07:33:26;8.00;46.10
4354;DHT22;11018;51.258;6.806;2024-03-17T07:35:56;8.00;46.80
4354;DHT22;11018;51.258;6.806;2024-03-17T07:38:29;8.10;47.70
4354;DHT22;11018;51.258;6.806;2024-03-17T07:41:00;8.30;46.90
4354;DHT22;11018;51.258;6.806;2024-03-17T07:43:27;8.70;46.30
4354;DHT22;11018;51.258;6.806;2024-03-17T07:46:02;8.80;43.80
4354;DHT22;11018;51.258;6.806;2024-03-17T07:48:33;9.10;43.30
4354;DHT22;11018;51.258;6.806;2024-03-17T07:51:03;9.40;42.00
4354;DHT22;11018;51.258;6.806;2024-03-17T07:53:30;9.60;39.80
4354;DHT22;11018;51.258;6.806;2024-03-17T07:55:57;9.80;39.40
4354;DHT22;11018;51.258;6.806;2024-03-17T07:58:24;9.80;39.50
4354;DHT22;11018;51.258;6.806;2024-03-17T08:00:51;9.80;39.10
4354;DHT22;11018;51.258;6.806;2024-03-17T08:03:18;9.70;38.20
4354;DHT22;11018;51.258;6.806;2024-03-17T08:05:48;9.50;39.10
4354;DHT22;11018;51.258;6.806;2024-03-17T08:08:15;9.50;38.20
4354;DHT22;11018;51.258;6.806;2024-03-17T08:10:40;9.30;39.60
4354;DHT22;11018;51.258;6.806;2024-03-17T08:13:06;9.50;41.50
4354;DHT22;11018;51.258;6.806;2024-03-17T08:15:34;9.60;40.40
4354;DHT22;11018;51.258;6.806;2024-03-17T08:18:00;9.80;38.70
4354;DHT22;11018;51.258;6.806;2024-03-17T08:20:25;9.90;38.50
4354;DHT22;11018;51.258;6.806;2024-03-17T08:22:51;10.10;38.50
4354;DHT22;11018;51.258;6.806;2024-03-17T08:25:17;10.30;38.50
4354;DHT22;11018;51.258;6.806;2024-03-17T08:27:43;10.40;37.60
4354;DHT22;11018;51.258;6.806;2024-03-17T08:30:09;10.60;35.30
4354;DHT22;11018;51.258;6.806;2024-03-17T08:32:38;10.70;35.60
4354;DHT22;11018;51.258;6.806;2024-03-17T08:35:04;10.90;35.20
4354;DHT22;11018;51.258;6.806;2024-03-17T08:37:31;11.20;34.00
4354;DHT22;11018;51.258;6.806;2024-03-17T08:39:57;11.40;33.70
4354;DHT22;11018;51.258;6.806;2024-03-17T08:42:22;11.60;33.30
4354;DHT22;11018;51.258;6.806;2024-03-17T08:44:48;11.80;32.60
4354;DHT22;11018;51.258;6.806;2024-03-17T08:47:13;12.00;31.30
4354;DHT22;11018;51.258;6.806;2024-03-17T08:49:39;12.20;30.70
4354;DHT22;11018;51.258;6.806;2024-03-17T08:52:04;12.30;29.70
4354;DHT22;11018;51.258;6.806;2024-03-17T08:54:30;12.50;30.10
4354;DHT22;11018;51.258;6.806;2024-03-17T08:56:56;12.60;29.50
4354;DHT22;11018;51.258;6.806;2024-03-17T08:59:21;12.70;30.50
4354;DHT22;11018;51.258;6.806;2024-03-17T09:01:47;12.70;29.00
4354;DHT22;11018;51.258;6.806;2024-03-17T09:04:12;12.70;29.80
4354;DHT22;11018;51.258;6.806;2024-03-17T09:06:38;12.70;28.80
4354;DHT22;11018;51.258;6.806;2024-03-17T09:09:04;12.80;28.90
4354;DHT22;11018;51.258;6.806;2024-03-17T09:11:29;12.80;28.10
4354;DHT22;11018;51.258;6.806;2024-03-17T09:13:55;12.70;28.50
4354;DHT22;11018;51.258;6.806;2024-03-17T09:16:20;12.80;27.80
4354;DHT22;11018;51.258;6.806;2024-03-17T09:18:49;12.80;27.80
4354;DHT22;11018;51.258;6.806;2024-03-17T09:21:14;12.70;28.50
4354;DHT22;11018;51.258;6.806;2024-03-17T09:23:41;12.70;28.40
4354;DHT22;11018;51.258;6.806;2024-03-17T09:26:09;12.80;28.40
4354;DHT22;11018;51.258;6.806;2024-03-17T09:28:36;12.90;28.90
4354;DHT22;11018;51.258;6.806;2024-03-17T09:31:02;12.80;27.50
4354;DHT22;11018;51.258;6.806;2024-03-17T09:33:29;12.90;27.90
4354;DHT22;11018;51.258;6.806;2024-03-17T09:36:01;13.10;27.50
4354;DHT22;11018;51.258;6.806;2024-03-17T09:38:27;13.30;27.30
4354;DHT22;11018;51.258;6.806;2024-03-17T09:40:53;13.40;27.10
4354;DHT22;11018;51.258;6.806;2024-03-17T09:43:21;13.60;27.20
4354;DHT22;11018;51.258;6.806;2024-03-17T09:45:48;13.70;26.40
4354;DHT22;11018;51.258;6.806;2024-03-17T09:48:15;13.70;26.10
4354;DHT22;11018;51.258;6.806;2024-03-17T09:50:50;13.80;26.10
4354;DHT22;11018;51.258;6.806;2024-03-17T09:53:17;13.80;25.50
4354;DHT22;11018;51.258;6.806;2024-03-17T09:55:45;14.00;25.20
4354;DHT22;11018;51.258;6.806;2024-03-17T09:58:16;14.00;25.20
4354;DHT22;11018;51.258;6.806;2024-03-17T10:00:43;13.90;25.80
4354;DHT22;11018;51.258;6.806;2024-03-17T10:03:09;14.10;25.50
4354;DHT22;11018;51.258;6.806;2024-03-17T10:05:34;14.00;25.40
4354;DHT22;11018;51.258;6.806;2024-03-17T10:08:01;13.90;26.00
4354;DHT22;11018;51.258;6.806;2024-03-17T10:10:27;14.10;25.50
4354;DHT22;11018;51.258;6.806;2024-03-17T10:12:53;14.40;25.30
4354;DHT22;11018;51.258;6.806;2024-03-17T10:15:19;14.50;24.30
4354;DHT22;11018;51.258;6.806;2024-03-17T10:17:46;14.50;24.60
4354;DHT22;11018;51.258;6.806;2024-03-17T10:20:19;14.50;24.50
4354;DHT22;11018;51.258;6.806;2024-03-17T10:23:02;14.50;23.70
4354;DHT22;11018;51.258;6.806;2024-03-17T10:25:30;14.70;23.30
4354;DHT22;11018;51.258;6.806;2024-03-17T10:27:56;14.80;23.40
4354;DHT22;11018;51.258;6.806;2024-03-17T10:30:23;14.90;23.80
4354;DHT22;11018;51.258;6.806;2024-03-17T10:33:22;15.00;22.90
4354;DHT22;11018;51.258;6.806;2024-03-17T10:35:50;15.20;22.80
4354;DHT22;11018;51.258;6.806;2024-03-17T10:38:16;15.30;22.20
4354;DHT22;11018;51.258;6.806;2024-03-17T10:40:41;15.40;22.10
4354;DHT22;11018;51.258;6.806;2024-03-17T10:43:07;15.40;22.10
4354;DHT22;11018;51.258;6.806;2024-03-17T10:45:33;15.50;21.90
4354;DHT22;11018;51.258;6.806;2024-03-17T10:48:02;15.50;21.40
4354;DHT22;11018;51.258;6.806;2024-03-17T10:50:36;15.60;21.10
4354;DHT22;11018;51.258;6.806;2024-03-17T10:53:03;15.60;21.00
4354;DHT22;11018;51.258;6.806;2024-03-17T10:55:34;15.60;20.60
4354;DHT22;11018;51.258;6.806;2024-03-17T10:58:13;15.60;21.00
4354;DHT22;11018;51.258;6.806;2024-03-17T11:00:42;15.70;20.90
4354;DHT22;11018;51.258;6.806;2024-03-17T11:03:09;16.00;20.70
4354;DHT22;11018;51.258;6.806;2024-03-17T11:05:37;16.20;20.20
4354;DHT22;11018;51.258;6.806;2024-03-17T11:08:03;16.10;20.00
4354;DHT22;11018;51.258;6.806;2024-03-17T11:10:34;16.20;20.00
4354;DHT22;11018;51.258;6.806;2024-03-17T11:13:01;16.30;19.50
4354;DHT22;11018;51.258;6.806;2024-03-17T11:20:57;16.80;19.10
4354;DHT22;11018;51.258;6.806;2024-03-17T11:23:27;16.80;19.20
4354;DHT22;11018;51.258;6.806;2024-03-17T11:25:54;16.70;18.60
4354;DHT22;11018;51.258;6.806;2024-03-17T11:28:57;16.60;18.70
4354;DHT22;11018;51.258;6.806;2024-03-17T11:31:46;16.40;19.10
4354;DHT22;11018;51.258;6.806;2024-03-17T11:34:33;16.50;19.80
4354;DHT22;11018;51.258;6.806;2024-03-17T11:37:01;17.00;19.40
4354;DHT22;11018;51.258;6.806;2024-03-17T11:39:49;16.90;19.00
4354;DHT22;11018;51.258;6.806;2024-03-17T11:42:15;16.70;18.80
4354;DHT22;11018;51.258;6.806;2024-03-17T11:44:59;16.50;19.50
4354;DHT22;11018;51.258;6.806;2024-03-17T11:47:33;16.50;19.80
4354;DHT22;11018;51.258;6.806;2024-03-17T11:50:02;16.70;20.00
4354;DHT22;11018;51.258;6.806;2024-03-17T11:52:28;16.50;20.00
4354;DHT22;11018;51.258;6.806;2024-03-17T11:54:53;16.50;19.70
4354;DHT22;11018;51.258;6.806;2024-03-17T11:57:20;16.50;19.80
4354;DHT22;11018;51.258;6.806;2024-03-17T11:59:48;16.40;20.00
4354;DHT22;11018;51.258;6.806;2024-03-17T12:02:26;16.60;19.90
4354;DHT22;11018;51.258;6.806;2024-03-17T12:04:58;16.70;19.70
4354;DHT22;11018;51.258;6.806;2024-03-17T12:07:24;16.60;19.10
4354;DHT22;11018;51.258;6.806;2024-03-17T12:09:51;16.70;19.60
4354;DHT22;11018;51.258;6.806;2024-03-17T12:12:18;16.80;19.40
4354;DHT22;11018;51.258;6.806;2024-03-17T12:14:45;16.90;19.40
4354;DHT22;11018;51.258;6.806;2024-03-17T12:17:13;17.20;18.90
4354;DHT22;11018;51.258;6.806;2024-03-17T12:19:45;17.40;18.60
4354;DHT22;11018;51.258;6.806;2024-03-17T12:22:19;17.40;18.00
4354;DHT22;11018;51.258;6.806;2024-03-17T12:24:51;17.60;18.30
4354;DHT22;11018;51.258;6.806;2024-03-17T12:27:24;17.60;18.00
4354;DHT22;11018;51.258;6.806;2024-03-17T12:29:51;17.70;18.30
4354;DHT22;11018;51.258;6.806;2024-03-17T12:32:22;17.80;17.50
4354;DHT22;11018;51.258;6.806;2024-03-17T12:34:52;17.70;17.60
4354;DHT22;11018;51.258;6.806;2024-03-17T12:39:45;17.60;18.70
4354;DHT22;11018;51.258;6.806;2024-03-17T12:42:13;17.70;18.30
4354;DHT22;11018;51.258;6.806;2024-03-17T12:44:47;17.60;17.70
4354;DHT22;11018;51.258;6.806;2024-03-17T12:47:17;17.60;18.00
4354;DHT22;11018;51.258;6.806;2024-03-17T12:49:50;17.50;18.10
4354;DHT22;11018;51.258;6.806;2024-03-17T12:52:28;17.60;17.00
4354;DHT22;11018;51.258;6.806;2024-03-17T12:57:48;17.80;16.90
4354;DHT22;11018;51.258;6.806;2024-03-17T13:00:33;17.90;16.70
4354;DHT22;11018;51.258;6.806;2024-03-17T13:03:05;18.00;16.80
4354;DHT22;11018;51.258;6.806;2024-03-17T13:05:35;17.80;16.70
4354;DHT22;11018;51.258;6.806;2024-03-17T13:08:01;17.80;16.70
4354;DHT22;11018;51.258;6.806;2024-03-17T13:10:28;17.70;16.30
4354;DHT22;11018;51.258;6.806;2024-03-17T13:13:03;17.70;16.80
4354;DHT22;11018;51.258;6.806;2024-03-17T13:15:30;17.80;16.90
4354;DHT22;11018;51.258;6.806;2024-03-17T13:17:57;17.80;16.70
4354;DHT22;11018;51.258;6.806;2024-03-17T13:20:23;17.80;16.70
4354;DHT22;11018;51.258;6.806;2024-03-17T13:22:49;17.70;17.00
4354;DHT22;11018;51.258;6.806;2024-03-17T13:25:17;17.70;16.40
4354;DHT22;11018;51.258;6.806;2024-03-17T13:27:44;17.50;16.50
4354;DHT22;11018;51.258;6.806;2024-03-17T13:30:11;17.50;17.00
4354;DHT22;11018;51.258;6.806;2024-03-17T13:32:37;17.70;16.80
4354;DHT22;11018;51.258;6.806;2024-03-17T13:35:03;17.60;16.80
4354;DHT22;11018;51.258;6.806;2024-03-17T13:37:29;17.40;17.00
4354;DHT22;11018;51.258;6.806;2024-03-17T13:39:54;17.20;17.80
4354;DHT22;11018;51.258;6.806;2024-03-17T13:42:20;17.10;17.30
4354;DHT22;11018;51.258;6.806;2024-03-17T13:44:46;17.10;17.80
4354;DHT22;11018;51.258;6.806;2024-03-17T13:47:14;17.10;17.50
4354;DHT22;11018;51.258;6.806;2024-03-17T13:49:40;17.10;17.90
4354;DHT22;11018;51.258;6.806;2024-03-17T13:52:05;17.00;17.90
4354;DHT22;11018;51.258;6.806;2024-03-17T13:54:31;17.20;18.20
4354;DHT22;11018;51.258;6.806;2024-03-17T13:56:57;17.10;17.90
4354;DHT22;11018;51.258;6.806;2024-03-17T13:59:24;17.00;18.40
4354;DHT22;11018;51.258;6.806;2024-03-17T14:01:52;17.10;18.40
4354;DHT22;11018;51.258;6.806;2024-03-17T14:04:17;17.20;18.20
4354;DHT22;11018;51.258;6.806;2024-03-17T14:06:45;17.20;17.90
4354;DHT22;11018;51.258;6.806;2024-03-17T14:09:12;17.00;18.00
4354;DHT22;11018;51.258;6.806;2024-03-17T14:11:38;17.00;18.20
4354;DHT22;11018;51.258;6.806;2024-03-17T14:14:05;16.90;18.60
4354;DHT22;11018;51.258;6.806;2024-03-17T14:16:31;16.90;18.50
4354;DHT22;11018;51.258;6.806;2024-03-17T14:19:00;16.90;18.40
4354;DHT22;11018;51.258;6.806;2024-03-17T14:21:27;17.00;18.60
4354;DHT22;11018;51.258;6.806;2024-03-17T14:23:53;17.00;18.60
4354;DHT22;11018;51.258;6.806;2024-03-17T14:26:19;17.10;18.50
4354;DHT22;11018;51.258;6.806;2024-03-17T14:28:45;17.30;18.30
4354;DHT22;11018;51.258;6.806;2024-03-17T14:31:11;17.30;17.60
4354;DHT22;11018;51.258;6.806;2024-03-17T14:33:37;17.30;18.10
4354;DHT22;11018;51.258;6.806;2024-03-17T14:36:04;17.20;18.10
4354;DHT22;11018;51.258;6.806;2024-03-17T14:38:31;17.10;18.10
4354;DHT22;11018;51.258;6.806;2024-03-17T14:40:57;17.10;18.10
4354;DHT22;11018;51.258;6.806;2024-03-17T14:43:23;17.20;17.90
4354;DHT22;11018;51.258;6.806;2024-03-17T14:45:49;17.10;18.10
4354;DHT22;11018;51.258;6.806;2024-03-17T14:48:14;17.00;17.60
4354;DHT22;11018;51.258;6.806;2024-03-17T14:50:40;17.20;17.30
4354;DHT22;11018;51.258;6.806;2024-03-17T14:53:06;17.20;17.00
4354;DHT22;11018;51.258;6.806;2024-03-17T14:55:31;17.10;17.40
4354;DHT22;11018;51.258;6.806;2024-03-17T14:57:57;17.20;16.80
4354;DHT22;11018;51.258;6.806;2024-03-17T15:00:23;17.20;17.10
4354;DHT22;11018;51.258;6.806;2024-03-17T15:02:51;17.30;16.60
4354;DHT22;11018;51.258;6.806;2024-03-17T15:05:17;17.60;16.40
4354;DHT22;11018;51.258;6.806;2024-03-17T15:07:47;17.80;15.80
4354;DHT22;11018;51.258;6.806;2024-03-17T15:10:13;17.80;16.30
4354;DHT22;11018;51.258;6.806;2024-03-17T15:12:46;17.90;16.60
4354;DHT22;11018;51.258;6.806;2024-03-17T15:15:12;18.00;17.00
4354;DHT22;11018;51.258;6.806;2024-03-17T15:17:38;18.00;17.10
4354;DHT22;11018;51.258;6.806;2024-03-17T15:20:04;18.10;17.10
4354;DHT22;11018;51.258;6.806;2024-03-17T15:22:46;18.20;17.00
4354;DHT22;11018;51.258;6.806;2024-03-17T15:25:12;18.00;17.70
4354;DHT22;11018;51.258;6.806;2024-03-17T15:27:40;17.90;18.30
4354;DHT22;11018;51.258;6.806;2024-03-17T15:30:07;18.00;18.10
4354;DHT22;11018;51.258;6.806;2024-03-17T15:32:33;17.70;17.80
4354;DHT22;11018;51.258;6.806;2024-03-17T15:34:58;17.60;18.10
4354;DHT22;11018;51.258;6.806;2024-03-17T15:37:26;17.40;18.50
4354;DHT22;11018;51.258;6.806;2024-03-17T15:39:51;17.30;18.70
4354;DHT22;11018;51.258;6.806;2024-03-17T15:42:17;17.20;19.10
4354;DHT22;11018;51.258;6.806;2024-03-17T15:44:45;17.30;18.90
4354;DHT22;11018;51.258;6.806;2024-03-17T15:47:10;17.30;18.90
4354;DHT22;11018;51.258;6.806;2024-03-17T15:49:36;17.40;18.80
4354;DHT22;11018;51.258;6.806;2024-03-17T15:52:02;17.30;19.00
4354;DHT22;11018;51.258;6.806;2024-03-17T15:54:28;17.50;18.80
4354;DHT22;11018;51.258;6.806;2024-03-17T15:56:55;17.40;18.80
4354;DHT22;11018;51.258;6.806;2024-03-17T15:59:20;17.50;18.40
4354;DHT22;11018;51.258;6.806;2024-03-17T16:01:48;17.60;18.30
4354;DHT22;11018;51.258;6.806;2024-03-17T16:04:17;17.50;18.80
4354;DHT22;11018;51.258;6.806;2024-03-17T16:06:44;17.30;18.60
4354;DHT22;11018;51.258;6.806;2024-03-17T16:09:13;17.20;19.10